sensor_id;sensor_type;location;lat;lon;timestamp;P1;durP1;ratioP1;P2;durP2;ratioP2
58918;SDS011;44704;50.122;19.932;2022-11-23T00:02:14;67.50;;;28.70;;
58918;SDS011;44704;50.122;19.932;2022-11-23T00:04:41;54.90;;;26.80;;
58918;SDS011;44704;50.122;19.932;2022-11-23T00:07:08;56.30;;;26.70;;
58918;SDS011;44704;50.122;19.932;2022-11-23T00:09:34;61.60;;;28.30;;
58918;SDS011;44704;50.122;19.932;2022-11-23T00:12:02;56.00;;;26.30;;
58918;SDS011;44704;50.122;19.932;2022-11-23T00:14:29;58.80;;;26.80;;
58918;SDS011;44704;50.122;19.932;2022-11-23T00:16:56;51.60;;;27.10;;
58918;SDS011;44704;50.122;19.932;2022-11-23T00:19:23;55.70;;;25.20;;
58918;SDS011;44704;50.122;19.932;2022-11-23T00:21:50;63.50;;;27.20;;
58918;SDS011;44704;50.122;19.932;2022-11-23T00:24:17;55.90;;;26.50;;
58918;SDS011;44704;50.122;19.932;2022-11-23T00:26:44;60.60;;;27.40;;
58918;SDS011;44704;50.122;19.932;2022-11-23T00:29:10;54.90;;;25.70;;
58918;SDS011;44704;50.122;19.932;2022-11-23T00:31:39;55.90;;;26.50;;
58918;SDS011;44704;50.122;19.932;2022-11-23T00:34:07;58.30;;;27.00;;
58918;SDS011;44704;50.122;19.932;2022-11-23T00:36:33;52.60;;;24.80;;
58918;SDS011;44704;50.122;19.932;2022-11-23T00:39:00;53.00;;;24.50;;
58918;SDS011;44704;50.122;19.932;2022-11-23T00:41:27;49.00;;;24.60;;
58918;SDS011;44704;50.122;19.932;2022-11-23T00:43:54;54.70;;;26.20;;
58918;SDS011;44704;50.122;19.932;2022-11-23T00:46:23;53.70;;;25.50;;
58918;SDS011;44704;50.122;19.932;2022-11-23T00:48:54;54.10;;;24.40;;
58918;SDS011;44704;50.122;19.932;2022-11-23T00:51:23;53.20;;;26.40;;
58918;SDS011;44704;50.122;19.932;2022-11-23T00:53:52;54.00;;;26.00;;
58918;SDS011;44704;50.122;19.932;2022-11-23T00:56:19;50.80;;;24.70;;
58918;SDS011;44704;50.122;19.932;2022-11-23T00:58:50;56.00;;;26.10;;
58918;SDS011;44704;50.122;19.932;2022-11-23T01:01:19;59.10;;;25.60;;
58918;SDS011;44704;50.122;19.932;2022-11-23T01:03:49;58.20;;;26.80;;
58918;SDS011;44704;50.122;19.932;2022-11-23T01:06:20;58.10;;;27.90;;
58918;SDS011;44704;50.122;19.932;2022-11-23T01:08:52;55.90;;;25.80;;
58918;SDS011;44704;50.122;19.932;2022-11-23T01:11:22;54.50;;;26.30;;
58918;SDS011;44704;50.122;19.932;2022-11-23T01:13:51;56.40;;;25.90;;
58918;SDS011;44704;50.122;19.932;2022-11-23T01:16:19;51.10;;;25.80;;
58918;SDS011;44704;50.122;19.932;2022-11-23T01:18:51;51.10;;;24.60;;
58918;SDS011;44704;50.122;19.932;2022-11-23T01:21:19;52.40;;;25.50;;
58918;SDS011;44704;50.122;19.932;2022-11-23T01:23:46;52.80;;;24.50;;
58918;SDS011;44704;50.122;19.932;2022-11-23T01:26:13;49.50;;;22.90;;
58918;SDS011;44704;50.122;19.932;2022-11-23T01:28:39;48.40;;;24.50;;
58918;SDS011;44704;50.122;19.932;2022-11-23T01:31:11;52.00;;;24.90;;
58918;SDS011;44704;50.122;19.932;2022-11-23T01:33:40;46.30;;;23.20;;
58918;SDS011;44704;50.122;19.932;2022-11-23T01:36:15;53.70;;;25.50;;
58918;SDS011;44704;50.122;19.932;2022-11-23T01:38:44;50.50;;;24.70;;
58918;SDS011;44704;50.122;19.932;2022-11-23T01:41:15;56.60;;;24.70;;
58918;SDS011;44704;50.122;19.932;2022-11-23T01:43:48;46.30;;;24.20;;
58918;SDS011;44704;50.122;19.932;2022-11-23T01:46:16;52.20;;;24.80;;
58918;SDS011;44704;50.122;19.932;2022-11-23T01:51:17;52.70;;;26.50;;
58918;SDS011;44704;50.122;19.932;2022-11-23T01:53:48;54.30;;;25.50;;
58918;SDS011;44704;50.122;19.932;2022-11-23T01:56:20;53.40;;;25.90;;
58918;SDS011;44704;50.122;19.932;2022-11-23T01:58:53;53.90;;;25.80;;
58918;SDS011;44704;50.122;19.932;2022-11-23T02:01:23;59.40;;;26.60;;
58918;SDS011;44704;50.122;19.932;2022-11-23T02:03:50;53.70;;;24.90;;
58918;SDS011;44704;50.122;19.932;2022-11-23T02:06:21;55.70;;;26.80;;
58918;SDS011;44704;50.122;19.932;2022-11-23T02:08:49;62.10;;;26.10;;
58918;SDS011;44704;50.122;19.932;2022-11-23T02:11:17;59.10;;;25.70;;
58918;SDS011;44704;50.122;19.932;2022-11-23T02:13:44;61.00;;;27.70;;
58918;SDS011;44704;50.122;19.932;2022-11-23T02:16:13;59.40;;;28.00;;
58918;SDS011;44704;50.122;19.932;2022-11-23T02:18:42;59.80;;;27.20;;
58918;SDS011;44704;50.122;19.932;2022-11-23T02:21:12;60.40;;;26.70;;
58918;SDS011;44704;50.122;19.932;2022-11-23T02:23:53;58.20;;;26.70;;
58918;SDS011;44704;50.122;19.932;2022-11-23T02:26:44;57.30;;;27.10;;
58918;SDS011;44704;50.122;19.932;2022-11-23T02:29:13;59.50;;;27.30;;
58918;SDS011;44704;50.122;19.932;2022-11-23T02:31:44;58.10;;;26.90;;
58918;SDS011;44704;50.122;19.932;2022-11-23T02:34:11;61.50;;;27.20;;
58918;SDS011;44704;50.122;19.932;2022-11-23T02:39:08;64.80;;;27.90;;
58918;SDS011;44704;50.122;19.932;2022-11-23T02:41:41;59.80;;;27.30;;
58918;SDS011;44704;50.122;19.932;2022-11-23T02:46:59;65.50;;;28.10;;
58918;SDS011;44704;50.122;19.932;2022-11-23T02:49:26;62.00;;;27.50;;
58918;SDS011;44704;50.122;19.932;2022-11-23T02:51:54;62.20;;;26.80;;
58918;SDS011;44704;50.122;19.932;2022-11-23T02:54:22;60.60;;;27.00;;
58918;SDS011;44704;50.122;19.932;2022-11-23T02:56:49;62.20;;;28.20;;
58918;SDS011;44704;50.122;19.932;2022-11-23T02:59:19;61.60;;;27.80;;
58918;SDS011;44704;50.122;19.932;2022-11-23T03:01:47;62.30;;;26.30;;
58918;SDS011;44704;50.122;19.932;2022-11-23T03:04:14;63.90;;;27.70;;
58918;SDS011;44704;50.122;19.932;2022-11-23T03:06:41;68.50;;;28.20;;
58918;SDS011;44704;50.122;19.932;2022-11-23T03:09:08;63.10;;;27.90;;
58918;SDS011;44704;50.122;19.932;2022-11-23T03:11:35;61.90;;;27.30;;
58918;SDS011;44704;50.122;19.932;2022-11-23T03:14:02;66.90;;;29.40;;
58918;SDS011;44704;50.122;19.932;2022-11-23T03:16:32;61.30;;;28.90;;
58918;SDS011;44704;50.122;19.932;2022-11-23T03:18:59;62.00;;;27.60;;
58918;SDS011;44704;50.122;19.932;2022-11-23T03:21:27;61.10;;;27.70;;
58918;SDS011;44704;50.122;19.932;2022-11-23T03:23:54;63.10;;;27.60;;
58918;SDS011;44704;50.122;19.932;2022-11-23T03:26:21;63.80;;;28.00;;
58918;SDS011;44704;50.122;19.932;2022-11-23T03:28:57;61.00;;;28.60;;
58918;SDS011;44704;50.122;19.932;2022-11-23T03:31:26;58.10;;;28.20;;
58918;SDS011;44704;50.122;19.932;2022-11-23T03:33:55;64.20;;;28.30;;
58918;SDS011;44704;50.122;19.932;2022-11-23T03:36:23;63.70;;;27.30;;
58918;SDS011;44704;50.122;19.932;2022-11-23T03:38:50;62.80;;;28.50;;
58918;SDS011;44704;50.122;19.932;2022-11-23T03:41:33;63.20;;;27.30;;
58918;SDS011;44704;50.122;19.932;2022-11-23T03:44:00;58.90;;;26.90;;
58918;SDS011;44704;50.122;19.932;2022-11-23T03:46:27;58.40;;;27.90;;
58918;SDS011;44704;50.122;19.932;2022-11-23T03:48:54;64.70;;;28.70;;
58918;SDS011;44704;50.122;19.932;2022-11-23T03:51:21;63.60;;;28.40;;
58918;SDS011;44704;50.122;19.932;2022-11-23T03:53:48;59.70;;;27.00;;
58918;SDS011;44704;50.122;19.932;2022-11-23T03:56:15;61.10;;;25.80;;
58918;SDS011;44704;50.122;19.932;2022-11-23T03:58:45;63.40;;;28.80;;
58918;SDS011;44704;50.122;19.932;2022-11-23T04:01:13;61.20;;;27.20;;
58918;SDS011;44704;50.122;19.932;2022-11-23T04:03:43;67.70;;;29.20;;
58918;SDS011;44704;50.122;19.932;2022-11-23T04:06:10;55.80;;;26.40;;
58918;SDS011;44704;50.122;19.932;2022-11-23T04:09:16;58.60;;;25.40;;
58918;SDS011;44704;50.122;19.932;2022-11-23T04:11:52;56.50;;;25.20;;
58918;SDS011;44704;50.122;19.932;2022-11-23T04:14:19;58.90;;;26.40;;
58918;SDS011;44704;50.122;19.932;2022-11-23T04:16:46;55.80;;;26.90;;
58918;SDS011;44704;50.122;19.932;2022-11-23T04:19:13;53.30;;;25.00;;
58918;SDS011;44704;50.122;19.932;2022-11-23T04:21:40;54.50;;;26.30;;
58918;SDS011;44704;50.122;19.932;2022-11-23T04:24:08;61.30;;;28.20;;
58918;SDS011;44704;50.122;19.932;2022-11-23T04:26:35;57.80;;;27.30;;
58918;SDS011;44704;50.122;19.932;2022-11-23T04:29:02;60.80;;;26.30;;
58918;SDS011;44704;50.122;19.932;2022-11-23T04:31:30;58.00;;;25.80;;
58918;SDS011;44704;50.122;19.932;2022-11-23T04:34:08;55.80;;;25.90;;
58918;SDS011;44704;50.122;19.932;2022-11-23T04:36:35;60.50;;;27.60;;
58918;SDS011;44704;50.122;19.932;2022-11-23T04:39:02;62.20;;;27.00;;
58918;SDS011;44704;50.122;19.932;2022-11-23T04:41:36;56.10;;;26.10;;
58918;SDS011;44704;50.122;19.932;2022-11-23T04:44:04;63.50;;;27.10;;
58918;SDS011;44704;50.122;19.932;2022-11-23T04:46:34;59.60;;;28.90;;
58918;SDS011;44704;50.122;19.932;2022-11-23T04:49:04;58.60;;;26.10;;
58918;SDS011;44704;50.122;19.932;2022-11-23T04:51:31;55.80;;;25.90;;
58918;SDS011;44704;50.122;19.932;2022-11-23T04:54:02;65.50;;;27.60;;
58918;SDS011;44704;50.122;19.932;2022-11-23T04:56:35;53.60;;;25.20;;
58918;SDS011;44704;50.122;19.932;2022-11-23T04:59:03;50.10;;;24.10;;
58918;SDS011;44704;50.122;19.932;2022-11-23T05:01:30;49.70;;;24.00;;
58918;SDS011;44704;50.122;19.932;2022-11-23T05:04:18;49.20;;;23.50;;
58918;SDS011;44704;50.122;19.932;2022-11-23T05:06:46;50.80;;;23.50;;
58918;SDS011;44704;50.122;19.932;2022-11-23T05:09:13;47.20;;;23.40;;
58918;SDS011;44704;50.122;19.932;2022-11-23T05:11:55;44.70;;;21.20;;
58918;SDS011;44704;50.122;19.932;2022-11-23T05:14:22;47.60;;;22.40;;
58918;SDS011;44704;50.122;19.932;2022-11-23T05:16:48;47.50;;;22.40;;
58918;SDS011;44704;50.122;19.932;2022-11-23T05:19:16;44.80;;;21.40;;
58918;SDS011;44704;50.122;19.932;2022-11-23T05:21:42;48.20;;;22.50;;
58918;SDS011;44704;50.122;19.932;2022-11-23T05:24:11;44.40;;;21.20;;
58918;SDS011;44704;50.122;19.932;2022-11-23T05:26:39;47.70;;;21.80;;
58918;SDS011;44704;50.122;19.932;2022-11-23T05:29:06;41.80;;;20.60;;
58918;SDS011;44704;50.122;19.932;2022-11-23T05:31:33;50.50;;;21.90;;
58918;SDS011;44704;50.122;19.932;2022-11-23T05:34:00;45.60;;;21.80;;
58918;SDS011;44704;50.122;19.932;2022-11-23T05:36:36;44.90;;;20.80;;
58918;SDS011;44704;50.122;19.932;2022-11-23T05:39:03;41.00;;;19.10;;
58918;SDS011;44704;50.122;19.932;2022-11-23T05:41:31;39.90;;;18.30;;
58918;SDS011;44704;50.122;19.932;2022-11-23T05:44:01;33.40;;;17.00;;
58918;SDS011;44704;50.122;19.932;2022-11-23T05:46:29;36.90;;;16.50;;
58918;SDS011;44704;50.122;19.932;2022-11-23T05:48:55;30.60;;;15.70;;
58918;SDS011;44704;50.122;19.932;2022-11-23T05:51:23;28.50;;;15.20;;
58918;SDS011;44704;50.122;19.932;2022-11-23T05:53:50;33.40;;;14.90;;
58918;SDS011;44704;50.122;19.932;2022-11-23T05:56:33;30.30;;;15.20;;
58918;SDS011;44704;50.122;19.932;2022-11-23T05:59:23;29.40;;;13.60;;
58918;SDS011;44704;50.122;19.932;2022-11-23T06:01:54;30.10;;;14.70;;
58918;SDS011;44704;50.122;19.932;2022-11-23T06:04:25;28.10;;;12.00;;
58918;SDS011;44704;50.122;19.932;2022-11-23T06:06:52;28.90;;;13.60;;
58918;SDS011;44704;50.122;19.932;2022-11-23T06:09:20;28.50;;;13.90;;
58918;SDS011;44704;50.122;19.932;2022-11-23T06:11:48;28.90;;;13.40;;
58918;SDS011;44704;50.122;19.932;2022-11-23T06:16:45;26.80;;;13.00;;
58918;SDS011;44704;50.122;19.932;2022-11-23T06:19:40;27.20;;;12.40;;
58918;SDS011;44704;50.122;19.932;2022-11-23T06:22:07;26.60;;;12.60;;
58918;SDS011;44704;50.122;19.932;2022-11-23T06:24:40;27.50;;;12.50;;
58918;SDS011;44704;50.122;19.932;2022-11-23T06:27:28;25.00;;;11.50;;
58918;SDS011;44704;50.122;19.932;2022-11-23T06:29:55;24.30;;;11.70;;
58918;SDS011;44704;50.122;19.932;2022-11-23T06:32:23;23.70;;;12.00;;
58918;SDS011;44704;50.122;19.932;2022-11-23T06:34:50;23.50;;;11.60;;
58918;SDS011;44704;50.122;19.932;2022-11-23T06:37:17;21.40;;;11.30;;
58918;SDS011;44704;50.122;19.932;2022-11-23T06:39:47;21.30;;;10.60;;
58918;SDS011;44704;50.122;19.932;2022-11-23T06:42:17;24.40;;;11.60;;
58918;SDS011;44704;50.122;19.932;2022-11-23T06:44:44;27.20;;;13.90;;
58918;SDS011;44704;50.122;19.932;2022-11-23T06:47:10;25.60;;;11.50;;
58918;SDS011;44704;50.122;19.932;2022-11-23T06:49:37;25.80;;;12.20;;
58918;SDS011;44704;50.122;19.932;2022-11-23T06:52:15;24.70;;;11.30;;
58918;SDS011;44704;50.122;19.932;2022-11-23T06:54:42;23.50;;;11.70;;
58918;SDS011;44704;50.122;19.932;2022-11-23T06:57:09;21.20;;;10.70;;
58918;SDS011;44704;50.122;19.932;2022-11-23T06:59:37;23.70;;;11.60;;
58918;SDS011;44704;50.122;19.932;2022-11-23T07:02:05;21.90;;;11.00;;
58918;SDS011;44704;50.122;19.932;2022-11-23T07:04:35;21.00;;;10.90;;
58918;SDS011;44704;50.122;19.932;2022-11-23T07:07:04;24.80;;;11.10;;
58918;SDS011;44704;50.122;19.932;2022-11-23T07:09:40;20.80;;;10.00;;
58918;SDS011;44704;50.122;19.932;2022-11-23T07:12:33;22.10;;;10.90;;
58918;SDS011;44704;50.122;19.932;2022-11-23T07:15:00;25.70;;;12.50;;
58918;SDS011;44704;50.122;19.932;2022-11-23T07:17:37;25.30;;;12.50;;
58918;SDS011;44704;50.122;19.932;2022-11-23T07:20:05;25.10;;;11.90;;
58918;SDS011;44704;50.122;19.932;2022-11-23T07:22:34;22.70;;;12.10;;
58918;SDS011;44704;50.122;19.932;2022-11-23T07:25:02;25.10;;;13.00;;
58918;SDS011;44704;50.122;19.932;2022-11-23T07:27:30;24.10;;;12.60;;
58918;SDS011;44704;50.122;19.932;2022-11-23T07:29:58;22.40;;;11.50;;
58918;SDS011;44704;50.122;19.932;2022-11-23T07:32:25;26.80;;;13.00;;
58918;SDS011;44704;50.122;19.932;2022-11-23T07:34:51;22.70;;;11.20;;
58918;SDS011;44704;50.122;19.932;2022-11-23T07:37:19;23.30;;;12.10;;
58918;SDS011;44704;50.122;19.932;2022-11-23T07:39:46;24.90;;;11.10;;
58918;SDS011;44704;50.122;19.932;2022-11-23T07:42:13;29.40;;;13.30;;
58918;SDS011;44704;50.122;19.932;2022-11-23T07:44:40;28.10;;;13.20;;
58918;SDS011;44704;50.122;19.932;2022-11-23T07:47:08;28.20;;;13.20;;
58918;SDS011;44704;50.122;19.932;2022-11-23T07:49:35;29.50;;;14.40;;
58918;SDS011;44704;50.122;19.932;2022-11-23T07:52:02;27.90;;;12.80;;
58918;SDS011;44704;50.122;19.932;2022-11-23T07:54:29;28.70;;;13.10;;
58918;SDS011;44704;50.122;19.932;2022-11-23T07:56:56;28.80;;;13.10;;
58918;SDS011;44704;50.122;19.932;2022-11-23T07:59:23;29.10;;;13.40;;
58918;SDS011;44704;50.122;19.932;2022-11-23T08:01:50;32.70;;;14.10;;
58918;SDS011;44704;50.122;19.932;2022-11-23T08:04:17;33.00;;;15.00;;
58918;SDS011;44704;50.122;19.932;2022-11-23T08:06:43;31.60;;;14.80;;
58918;SDS011;44704;50.122;19.932;2022-11-23T08:09:10;31.00;;;14.40;;
58918;SDS011;44704;50.122;19.932;2022-11-23T08:11:37;33.20;;;14.40;;
58918;SDS011;44704;50.122;19.932;2022-11-23T08:14:04;33.70;;;14.90;;
58918;SDS011;44704;50.122;19.932;2022-11-23T08:16:31;33.30;;;14.30;;
58918;SDS011;44704;50.122;19.932;2022-11-23T08:18:58;34.60;;;15.30;;
58918;SDS011;44704;50.122;19.932;2022-11-23T08:21:25;30.50;;;12.90;;
58918;SDS011;44704;50.122;19.932;2022-11-23T08:23:52;33.10;;;14.30;;
58918;SDS011;44704;50.122;19.932;2022-11-23T08:26:19;34.20;;;14.80;;
58918;SDS011;44704;50.122;19.932;2022-11-23T08:28:46;26.20;;;12.20;;
58918;SDS011;44704;50.122;19.932;2022-11-23T08:31:13;31.40;;;13.60;;
58918;SDS011;44704;50.122;19.932;2022-11-23T08:33:40;36.70;;;16.40;;
58918;SDS011;44704;50.122;19.932;2022-11-23T08:36:07;30.10;;;12.70;;
58918;SDS011;44704;50.122;19.932;2022-11-23T08:38:35;37.00;;;15.40;;
58918;SDS011;44704;50.122;19.932;2022-11-23T08:41:03;33.00;;;14.80;;
58918;SDS011;44704;50.122;19.932;2022-11-23T08:43:31;32.60;;;14.30;;
58918;SDS011;44704;50.122;19.932;2022-11-23T08:46:00;35.50;;;15.20;;
58918;SDS011;44704;50.122;19.932;2022-11-23T08:48:27;33.70;;;14.80;;
58918;SDS011;44704;50.122;19.932;2022-11-23T08:50:57;35.00;;;13.70;;
58918;SDS011;44704;50.122;19.932;2022-11-23T08:53:25;32.80;;;14.50;;
58918;SDS011;44704;50.122;19.932;2022-11-23T08:55:53;33.30;;;14.20;;
58918;SDS011;44704;50.122;19.932;2022-11-23T08:58:20;36.30;;;16.70;;
58918;SDS011;44704;50.122;19.932;2022-11-23T09:00:47;41.00;;;16.70;;
58918;SDS011;44704;50.122;19.932;2022-11-23T09:03:14;38.20;;;17.00;;
58918;SDS011;44704;50.122;19.932;2022-11-23T09:05:41;40.50;;;16.30;;
58918;SDS011;44704;50.122;19.932;2022-11-23T09:08:07;35.60;;;15.20;;
58918;SDS011;44704;50.122;19.932;2022-11-23T09:10:35;37.40;;;17.10;;
58918;SDS011;44704;50.122;19.932;2022-11-23T09:13:02;35.40;;;15.80;;
58918;SDS011;44704;50.122;19.932;2022-11-23T09:15:29;41.50;;;17.50;;
58918;SDS011;44704;50.122;19.932;2022-11-23T09:17:56;45.10;;;19.10;;
58918;SDS011;44704;50.122;19.932;2022-11-23T09:20:23;41.50;;;17.60;;
58918;SDS011;44704;50.122;19.932;2022-11-23T09:22:52;38.60;;;17.70;;
58918;SDS011;44704;50.122;19.932;2022-11-23T09:25:20;37.90;;;16.50;;
58918;SDS011;44704;50.122;19.932;2022-11-23T09:27:48;39.30;;;16.70;;
58918;SDS011;44704;50.122;19.932;2022-11-23T09:30:21;41.30;;;17.60;;
58918;SDS011;44704;50.122;19.932;2022-11-23T09:32:48;45.90;;;18.50;;
58918;SDS011;44704;50.122;19.932;2022-11-23T09:35:15;39.80;;;16.20;;
58918;SDS011;44704;50.122;19.932;2022-11-23T09:37:42;40.70;;;19.00;;
58918;SDS011;44704;50.122;19.932;2022-11-23T09:40:11;45.80;;;17.60;;
58918;SDS011;44704;50.122;19.932;2022-11-23T09:45:20;42.10;;;16.70;;
58918;SDS011;44704;50.122;19.932;2022-11-23T09:48:14;46.70;;;18.50;;
58918;SDS011;44704;50.122;19.932;2022-11-23T09:50:53;44.30;;;18.10;;
58918;SDS011;44704;50.122;19.932;2022-11-23T09:56:36;40.00;;;18.60;;
58918;SDS011;44704;50.122;19.932;2022-11-23T09:59:09;44.80;;;18.80;;
58918;SDS011;44704;50.122;19.932;2022-11-23T10:01:41;45.80;;;20.90;;
58918;SDS011;44704;50.122;19.932;2022-11-23T10:04:10;46.80;;;18.80;;
58918;SDS011;44704;50.122;19.932;2022-11-23T10:06:44;45.40;;;20.00;;
58918;SDS011;44704;50.122;19.932;2022-11-23T10:12:22;40.90;;;19.20;;
58918;SDS011;44704;50.122;19.932;2022-11-23T10:15:26;41.20;;;18.50;;
58918;SDS011;44704;50.122;19.932;2022-11-23T10:20:41;37.30;;;16.70;;
58918;SDS011;44704;50.122;19.932;2022-11-23T10:23:12;40.70;;;18.20;;
58918;SDS011;44704;50.122;19.932;2022-11-23T10:26:01;45.00;;;19.70;;
58918;SDS011;44704;50.122;19.932;2022-11-23T10:28:28;42.00;;;19.10;;
58918;SDS011;44704;50.122;19.932;2022-11-23T10:33:54;38.00;;;17.60;;
58918;SDS011;44704;50.122;19.932;2022-11-23T10:41:44;32.70;;;16.30;;
58918;SDS011;44704;50.122;19.932;2022-11-23T10:44:31;37.30;;;18.00;;
58918;SDS011;44704;50.122;19.932;2022-11-23T10:47:03;38.30;;;17.90;;
58918;SDS011;44704;50.122;19.932;2022-11-23T10:49:31;34.10;;;17.40;;
58918;SDS011;44704;50.122;19.932;2022-11-23T10:52:01;43.90;;;20.60;;
58918;SDS011;44704;50.122;19.932;2022-11-23T10:54:35;40.70;;;19.80;;
58918;SDS011;44704;50.122;19.932;2022-11-23T10:57:51;42.80;;;19.30;;
58918;SDS011;44704;50.122;19.932;2022-11-23T11:02:42;38.50;;;19.00;;
58918;SDS011;44704;50.122;19.932;2022-11-23T11:07:59;35.30;;;17.30;;
58918;SDS011;44704;50.122;19.932;2022-11-23T11:13:23;43.90;;;17.00;;
58918;SDS011;44704;50.122;19.932;2022-11-23T11:21:48;35.90;;;17.10;;
58918;SDS011;44704;50.122;19.932;2022-11-23T11:24:37;44.00;;;19.30;;
58918;SDS011;44704;50.122;19.932;2022-11-23T11:30:02;43.00;;;19.20;;
58918;SDS011;44704;50.122;19.932;2022-11-23T11:32:46;48.10;;;20.10;;
58918;SDS011;44704;50.122;19.932;2022-11-23T11:35:41;45.30;;;19.00;;
58918;SDS011;44704;50.122;19.932;2022-11-23T11:38:26;38.20;;;16.50;;
58918;SDS011;44704;50.122;19.932;2022-11-23T11:41:01;42.10;;;17.40;;
58918;SDS011;44704;50.122;19.932;2022-11-23T11:43:38;39.50;;;17.60;;
58918;SDS011;44704;50.122;19.932;2022-11-23T11:46:19;29.90;;;14.40;;
58918;SDS011;44704;50.122;19.932;2022-11-23T11:48:53;39.60;;;17.40;;
58918;SDS011;44704;50.122;19.932;2022-11-23T11:51:27;41.10;;;18.60;;
58918;SDS011;44704;50.122;19.932;2022-11-23T11:54:16;41.10;;;18.80;;
58918;SDS011;44704;50.122;19.932;2022-11-23T11:57:09;36.10;;;16.40;;
58918;SDS011;44704;50.122;19.932;2022-11-23T11:59:56;45.70;;;20.80;;
58918;SDS011;44704;50.122;19.932;2022-11-23T12:02:30;43.70;;;19.90;;
58918;SDS011;44704;50.122;19.932;2022-11-23T12:05:04;44.90;;;18.70;;
58918;SDS011;44704;50.122;19.932;2022-11-23T12:07:34;36.70;;;16.00;;
58918;SDS011;44704;50.122;19.932;2022-11-23T12:12:49;41.60;;;17.80;;
58918;SDS011;44704;50.122;19.932;2022-11-23T12:15:18;35.60;;;16.20;;
58918;SDS011;44704;50.122;19.932;2022-11-23T12:20:43;43.80;;;18.20;;
58918;SDS011;44704;50.122;19.932;2022-11-23T12:23:25;40.70;;;19.30;;
58918;SDS011;44704;50.122;19.932;2022-11-23T12:26:02;43.30;;;19.10;;
58918;SDS011;44704;50.122;19.932;2022-11-23T12:28:50;41.90;;;18.70;;
58918;SDS011;44704;50.122;19.932;2022-11-23T12:36:44;47.40;;;19.40;;
58918;SDS011;44704;50.122;19.932;2022-11-23T12:45:32;38.90;;;18.00;;
58918;SDS011;44704;50.122;19.932;2022-11-23T12:47:52;49.90;;;20.20;;
58918;SDS011;44704;50.122;19.932;2022-11-23T12:50:28;45.30;;;19.50;;
58918;SDS011;44704;50.122;19.932;2022-11-23T12:55:38;45.20;;;20.20;;
58918;SDS011;44704;50.122;19.932;2022-11-23T13:00:38;51.90;;;22.00;;
58918;SDS011;44704;50.122;19.932;2022-11-23T13:13:39;42.30;;;18.30;;
58918;SDS011;44704;50.122;19.932;2022-11-23T13:21:48;49.40;;;19.80;;
58918;SDS011;44704;50.122;19.932;2022-11-23T13:24:31;48.40;;;20.40;;
58918;SDS011;44704;50.122;19.932;2022-11-23T13:29:45;45.90;;;20.10;;
58918;SDS011;44704;50.122;19.932;2022-11-23T13:40:42;49.50;;;21.40;;
58918;SDS011;44704;50.122;19.932;2022-11-23T13:43:21;52.80;;;20.40;;
58918;SDS011;44704;50.122;19.932;2022-11-23T13:48:55;46.30;;;20.20;;
58918;SDS011;44704;50.122;19.932;2022-11-23T13:51:29;45.70;;;21.20;;
58918;SDS011;44704;50.122;19.932;2022-11-23T13:54:18;46.20;;;22.40;;
58918;SDS011;44704;50.122;19.932;2022-11-23T13:56:58;47.80;;;20.90;;
58918;SDS011;44704;50.122;19.932;2022-11-23T14:28:41;49.30;;;21.80;;
58918;SDS011;44704;50.122;19.932;2022-11-23T14:36:30;47.50;;;21.90;;
58918;SDS011;44704;50.122;19.932;2022-11-23T14:41:57;44.80;;;20.10;;
58918;SDS011;44704;50.122;19.932;2022-11-23T14:44:27;42.50;;;22.10;;
58918;SDS011;44704;50.122;19.932;2022-11-23T14:46:59;41.30;;;20.90;;
58918;SDS011;44704;50.122;19.932;2022-11-23T14:49:27;45.60;;;21.60;;
58918;SDS011;44704;50.122;19.932;2022-11-23T14:51:55;52.10;;;21.20;;
58918;SDS011;44704;50.122;19.932;2022-11-23T14:54:23;43.30;;;21.20;;
58918;SDS011;44704;50.122;19.932;2022-11-23T14:56:52;43.70;;;20.60;;
58918;SDS011;44704;50.122;19.932;2022-11-23T14:59:41;41.40;;;21.00;;
58918;SDS011;44704;50.122;19.932;2022-11-23T15:02:36;42.80;;;19.90;;
58918;SDS011;44704;50.122;19.932;2022-11-23T15:05:19;41.30;;;21.20;;
58918;SDS011;44704;50.122;19.932;2022-11-23T15:10:25;43.40;;;21.50;;
58918;SDS011;44704;50.122;19.932;2022-11-23T15:15:48;40.60;;;19.90;;
58918;SDS011;44704;50.122;19.932;2022-11-23T15:21:00;43.90;;;20.50;;
58918;SDS011;44704;50.122;19.932;2022-11-23T15:23:48;43.50;;;19.50;;
58918;SDS011;44704;50.122;19.932;2022-11-23T15:26:21;39.70;;;20.00;;
58918;SDS011;44704;50.122;19.932;2022-11-23T15:28:50;49.50;;;22.20;;
58918;SDS011;44704;50.122;19.932;2022-11-23T15:33:48;47.10;;;22.20;;
58918;SDS011;44704;50.122;19.932;2022-11-23T15:36:26;46.00;;;22.10;;
58918;SDS011;44704;50.122;19.932;2022-11-23T15:38:56;42.80;;;19.50;;
58918;SDS011;44704;50.122;19.932;2022-11-23T15:41:25;43.00;;;20.50;;
58918;SDS011;44704;50.122;19.932;2022-11-23T15:43:56;40.40;;;20.60;;
58918;SDS011;44704;50.122;19.932;2022-11-23T15:46:28;43.30;;;20.70;;
58918;SDS011;44704;50.122;19.932;2022-11-23T15:49:02;42.20;;;20.50;;
58918;SDS011;44704;50.122;19.932;2022-11-23T15:54:04;41.00;;;19.60;;
58918;SDS011;44704;50.122;19.932;2022-11-23T15:56:43;43.30;;;21.20;;
58918;SDS011;44704;50.122;19.932;2022-11-23T16:01:44;53.30;;;24.30;;
58918;SDS011;44704;50.122;19.932;2022-11-23T16:09:43;43.80;;;21.50;;
58918;SDS011;44704;50.122;19.932;2022-11-23T16:12:25;48.20;;;22.40;;
58918;SDS011;44704;50.122;19.932;2022-11-23T16:14:58;43.60;;;22.20;;
58918;SDS011;44704;50.122;19.932;2022-11-23T16:17:48;46.40;;;21.30;;
58918;SDS011;44704;50.122;19.932;2022-11-23T16:20:15;40.90;;;19.20;;
58918;SDS011;44704;50.122;19.932;2022-11-23T16:22:46;42.70;;;19.80;;
58918;SDS011;44704;50.122;19.932;2022-11-23T16:25:27;44.20;;;20.20;;
58918;SDS011;44704;50.122;19.932;2022-11-23T16:28:00;49.70;;;21.60;;
58918;SDS011;44704;50.122;19.932;2022-11-23T16:30:35;48.00;;;22.20;;
58918;SDS011;44704;50.122;19.932;2022-11-23T16:33:04;48.10;;;22.60;;
58918;SDS011;44704;50.122;19.932;2022-11-23T16:35:32;43.50;;;20.00;;
58918;SDS011;44704;50.122;19.932;2022-11-23T16:37:59;44.80;;;21.50;;
58918;SDS011;44704;50.122;19.932;2022-11-23T16:40:26;48.80;;;21.80;;
58918;SDS011;44704;50.122;19.932;2022-11-23T16:42:53;44.00;;;20.20;;
58918;SDS011;44704;50.122;19.932;2022-11-23T16:45:20;46.60;;;21.40;;
58918;SDS011;44704;50.122;19.932;2022-11-23T16:50:22;43.00;;;20.30;;
58918;SDS011;44704;50.122;19.932;2022-11-23T16:52:50;41.00;;;19.30;;
58918;SDS011;44704;50.122;19.932;2022-11-23T16:55:19;38.40;;;17.40;;
58918;SDS011;44704;50.122;19.932;2022-11-23T16:57:46;44.60;;;18.60;;
58918;SDS011;44704;50.122;19.932;2022-11-23T17:00:18;37.60;;;18.10;;
58918;SDS011;44704;50.122;19.932;2022-11-23T17:02:47;39.80;;;18.40;;
58918;SDS011;44704;50.122;19.932;2022-11-23T17:05:15;40.70;;;19.30;;
58918;SDS011;44704;50.122;19.932;2022-11-23T17:07:49;38.20;;;18.80;;
58918;SDS011;44704;50.122;19.932;2022-11-23T17:10:21;36.40;;;17.20;;
58918;SDS011;44704;50.122;19.932;2022-11-23T17:12:55;37.20;;;17.90;;